<?xml version="1.0" encoding="UTF-8" standalone="no" ?>
<gpx xmlns="http://www.topografix.com/GPX/1/1" xmlns:xsi="http://www.w3.org/2001/XMLSchema-instance" xsi:schemaLocation="http://www.topografix.com/GPX/1/1 http://www.topografix.com/GPX/1/1/gpx.xsd" version="1.1" creator="VisuGPX - https://www.visugpx.com">
  <metadata>
    <name>circuit no 24</name>
    <desc><![CDATA[pas mal comme circuit bien balisé
]]></desc>
  </metadata>
  <trk>
    <name><![CDATA[Tracé actuel: 18 NOV 2020 12:23]]></name>
    <trkseg>
      <trkpt lat="49.63452" lon="4.98033">
        <ele>176.06</ele>
        <time>2020-11-18T11:23:32Z</time>
      </trkpt>
      <trkpt lat="49.63456" lon="4.9803">
        <ele>181.35</ele>
        <time>2020-11-18T11:24:00Z</time>
      </trkpt>
      <trkpt lat="49.63455" lon="4.98032">
        <ele>186.63</ele>
        <time>2020-11-18T11:24:26Z</time>
      </trkpt>
      <trkpt lat="49.63454" lon="4.98027">
        <ele>186.63</ele>
        <time>2020-11-18T11:24:50Z</time>
      </trkpt>
      <trkpt lat="49.63454" lon="4.9802">
        <ele>185.67</ele>
        <time>2020-11-18T11:25:19Z</time>
      </trkpt>
      <trkpt lat="49.63455" lon="4.98021">
        <ele>187.59</ele>
        <time>2020-11-18T11:25:42Z</time>
      </trkpt>
      <trkpt lat="49.63447" lon="4.98023">
        <ele>187.59</ele>
        <time>2020-11-18T11:25:56Z</time>
      </trkpt>
      <trkpt lat="49.63425" lon="4.98015">
        <ele>186.63</ele>
        <time>2020-11-18T11:26:28Z</time>
      </trkpt>
      <trkpt lat="49.63444" lon="4.9803">
        <ele>187.11</ele>
        <time>2020-11-18T11:26:41Z</time>
      </trkpt>
      <trkpt lat="49.63435" lon="4.98014">
        <ele>186.15</ele>
        <time>2020-11-18T11:26:57Z</time>
      </trkpt>
      <trkpt lat="49.63423" lon="4.98007">
        <ele>181.35</ele>
        <time>2020-11-18T11:27:15Z</time>
      </trkpt>
      <trkpt lat="49.63416" lon="4.97994">
        <ele>176.54</ele>
        <time>2020-11-18T11:27:31Z</time>
      </trkpt>
      <trkpt lat="49.63408" lon="4.97974">
        <ele>172.69</ele>
        <time>2020-11-18T11:27:49Z</time>
      </trkpt>
      <trkpt lat="49.63402" lon="4.97959">
        <ele>170.77</ele>
        <time>2020-11-18T11:28:03Z</time>
      </trkpt>
      <trkpt lat="49.63395" lon="4.97938">
        <ele>168.85</ele>
        <time>2020-11-18T11:28:20Z</time>
      </trkpt>
      <trkpt lat="49.63404" lon="4.97927">
        <ele>164.52</ele>
        <time>2020-11-18T11:28:36Z</time>
      </trkpt>
      <trkpt lat="49.63413" lon="4.9792">
        <ele>161.16</ele>
        <time>2020-11-18T11:28:49Z</time>
      </trkpt>
      <trkpt lat="49.63428" lon="4.97906">
        <ele>160.2</ele>
        <time>2020-11-18T11:29:07Z</time>
      </trkpt>
      <trkpt lat="49.63429" lon="4.97905">
        <ele>159.72</ele>
        <time>2020-11-18T11:29:09Z</time>
      </trkpt>
      <trkpt lat="49.63442" lon="4.97902">
        <ele>155.39</ele>
        <time>2020-11-18T11:29:25Z</time>
      </trkpt>
      <trkpt lat="49.63463" lon="4.9789">
        <ele>152.51</ele>
        <time>2020-11-18T11:29:42Z</time>
      </trkpt>
      <trkpt lat="49.63479" lon="4.97872">
        <ele>154.91</ele>
        <time>2020-11-18T11:30:01Z</time>
      </trkpt>
      <trkpt lat="49.63487" lon="4.9785">
        <ele>164.52</ele>
        <time>2020-11-18T11:30:21Z</time>
      </trkpt>
      <trkpt lat="49.63501" lon="4.9782">
        <ele>167.41</ele>
        <time>2020-11-18T11:30:44Z</time>
      </trkpt>
      <trkpt lat="49.63515" lon="4.97797">
        <ele>169.33</ele>
        <time>2020-11-18T11:31:03Z</time>
      </trkpt>
      <trkpt lat="49.6353" lon="4.97781">
        <ele>168.85</ele>
        <time>2020-11-18T11:31:21Z</time>
      </trkpt>
      <trkpt lat="49.63541" lon="4.97767">
        <ele>166.45</ele>
        <time>2020-11-18T11:31:37Z</time>
      </trkpt>
      <trkpt lat="49.63548" lon="4.97738">
        <ele>165</ele>
        <time>2020-11-18T11:31:55Z</time>
      </trkpt>
      <trkpt lat="49.6355" lon="4.97728">
        <ele>165.48</ele>
        <time>2020-11-18T11:32:00Z</time>
      </trkpt>
      <trkpt lat="49.63566" lon="4.97698">
        <ele>165.96</ele>
        <time>2020-11-18T11:32:23Z</time>
      </trkpt>
      <trkpt lat="49.63581" lon="4.97679">
        <ele>166.45</ele>
        <time>2020-11-18T11:32:42Z</time>
      </trkpt>
      <trkpt lat="49.63599" lon="4.97664">
        <ele>165.96</ele>
        <time>2020-11-18T11:33:02Z</time>
      </trkpt>
      <trkpt lat="49.63615" lon="4.97653">
        <ele>165.96</ele>
        <time>2020-11-18T11:33:20Z</time>
      </trkpt>
      <trkpt lat="49.63635" lon="4.97637">
        <ele>164.04</ele>
        <time>2020-11-18T11:33:38Z</time>
      </trkpt>
      <trkpt lat="49.63638" lon="4.97631">
        <ele>164.52</ele>
        <time>2020-11-18T11:33:43Z</time>
      </trkpt>
      <trkpt lat="49.63647" lon="4.97606">
        <ele>167.89</ele>
        <time>2020-11-18T11:34:02Z</time>
      </trkpt>
      <trkpt lat="49.63648" lon="4.97593">
        <ele>169.33</ele>
        <time>2020-11-18T11:34:11Z</time>
      </trkpt>
      <trkpt lat="49.63645" lon="4.97558">
        <ele>177.98</ele>
        <time>2020-11-18T11:34:31Z</time>
      </trkpt>
      <trkpt lat="49.63643" lon="4.97533">
        <ele>180.38</ele>
        <time>2020-11-18T11:34:49Z</time>
      </trkpt>
      <trkpt lat="49.63641" lon="4.97512">
        <ele>181.35</ele>
        <time>2020-11-18T11:35:02Z</time>
      </trkpt>
      <trkpt lat="49.63641" lon="4.97485">
        <ele>182.31</ele>
        <time>2020-11-18T11:35:19Z</time>
      </trkpt>
      <trkpt lat="49.63644" lon="4.9745">
        <ele>183.75</ele>
        <time>2020-11-18T11:35:41Z</time>
      </trkpt>
      <trkpt lat="49.63652" lon="4.97419">
        <ele>183.75</ele>
        <time>2020-11-18T11:36:01Z</time>
      </trkpt>
      <trkpt lat="49.63659" lon="4.97407">
        <ele>183.75</ele>
        <time>2020-11-18T11:36:11Z</time>
      </trkpt>
      <trkpt lat="49.63674" lon="4.97389">
        <ele>186.15</ele>
        <time>2020-11-18T11:36:28Z</time>
      </trkpt>
      <trkpt lat="49.63687" lon="4.9737">
        <ele>186.63</ele>
        <time>2020-11-18T11:36:47Z</time>
      </trkpt>
      <trkpt lat="49.63709" lon="4.97355">
        <ele>189.04</ele>
        <time>2020-11-18T11:37:07Z</time>
      </trkpt>
      <trkpt lat="49.63714" lon="4.97349">
        <ele>189.52</ele>
        <time>2020-11-18T11:37:14Z</time>
      </trkpt>
      <trkpt lat="49.63731" lon="4.97332">
        <ele>192.88</ele>
        <time>2020-11-18T11:37:32Z</time>
      </trkpt>
      <trkpt lat="49.63745" lon="4.97314">
        <ele>195.28</ele>
        <time>2020-11-18T11:37:49Z</time>
      </trkpt>
      <trkpt lat="49.63753" lon="4.97302">
        <ele>196.73</ele>
        <time>2020-11-18T11:38:00Z</time>
      </trkpt>
      <trkpt lat="49.63763" lon="4.9728">
        <ele>198.17</ele>
        <time>2020-11-18T11:38:17Z</time>
      </trkpt>
      <trkpt lat="49.63772" lon="4.97257">
        <ele>200.09</ele>
        <time>2020-11-18T11:38:35Z</time>
      </trkpt>
      <trkpt lat="49.63786" lon="4.97237">
        <ele>202.98</ele>
        <time>2020-11-18T11:38:53Z</time>
      </trkpt>
      <trkpt lat="49.63801" lon="4.97212">
        <ele>205.86</ele>
        <time>2020-11-18T11:39:13Z</time>
      </trkpt>
      <trkpt lat="49.63814" lon="4.97188">
        <ele>207.3</ele>
        <time>2020-11-18T11:39:31Z</time>
      </trkpt>
      <trkpt lat="49.63825" lon="4.97166">
        <ele>208.26</ele>
        <time>2020-11-18T11:39:49Z</time>
      </trkpt>
      <trkpt lat="49.63833" lon="4.97147">
        <ele>210.67</ele>
        <time>2020-11-18T11:40:03Z</time>
      </trkpt>
      <trkpt lat="49.63844" lon="4.97124">
        <ele>213.55</ele>
        <time>2020-11-18T11:40:20Z</time>
      </trkpt>
      <trkpt lat="49.63855" lon="4.97102">
        <ele>215.47</ele>
        <time>2020-11-18T11:40:37Z</time>
      </trkpt>
      <trkpt lat="49.63871" lon="4.97084">
        <ele>216.91</ele>
        <time>2020-11-18T11:40:54Z</time>
      </trkpt>
      <trkpt lat="49.63882" lon="4.97068">
        <ele>216.91</ele>
        <time>2020-11-18T11:41:09Z</time>
      </trkpt>
      <trkpt lat="49.63885" lon="4.97063">
        <ele>217.88</ele>
        <time>2020-11-18T11:41:25Z</time>
      </trkpt>
      <trkpt lat="49.63901" lon="4.97038">
        <ele>217.88</ele>
        <time>2020-11-18T11:41:46Z</time>
      </trkpt>
      <trkpt lat="49.63908" lon="4.97018">
        <ele>219.32</ele>
        <time>2020-11-18T11:42:00Z</time>
      </trkpt>
      <trkpt lat="49.63917" lon="4.96995">
        <ele>219.32</ele>
        <time>2020-11-18T11:42:17Z</time>
      </trkpt>
      <trkpt lat="49.63928" lon="4.96967">
        <ele>217.4</ele>
        <time>2020-11-18T11:42:38Z</time>
      </trkpt>
      <trkpt lat="49.63931" lon="4.96943">
        <ele>216.91</ele>
        <time>2020-11-18T11:42:55Z</time>
      </trkpt>
      <trkpt lat="49.63943" lon="4.96919">
        <ele>214.51</ele>
        <time>2020-11-18T11:43:14Z</time>
      </trkpt>
      <trkpt lat="49.63956" lon="4.96904">
        <ele>214.51</ele>
        <time>2020-11-18T11:43:30Z</time>
      </trkpt>
      <trkpt lat="49.63958" lon="4.96901">
        <ele>214.51</ele>
        <time>2020-11-18T11:43:33Z</time>
      </trkpt>
      <trkpt lat="49.63968" lon="4.96885">
        <ele>217.88</ele>
        <time>2020-11-18T11:43:47Z</time>
      </trkpt>
      <trkpt lat="49.6398" lon="4.96862">
        <ele>221.24</ele>
        <time>2020-11-18T11:44:06Z</time>
      </trkpt>
      <trkpt lat="49.63994" lon="4.96845">
        <ele>225.57</ele>
        <time>2020-11-18T11:44:21Z</time>
      </trkpt>
      <trkpt lat="49.64007" lon="4.96828">
        <ele>227.97</ele>
        <time>2020-11-18T11:44:37Z</time>
      </trkpt>
      <trkpt lat="49.64015" lon="4.96807">
        <ele>227.97</ele>
        <time>2020-11-18T11:44:53Z</time>
      </trkpt>
      <trkpt lat="49.6402" lon="4.96797">
        <ele>228.93</ele>
        <time>2020-11-18T11:45:02Z</time>
      </trkpt>
      <trkpt lat="49.64025" lon="4.96786">
        <ele>230.37</ele>
        <time>2020-11-18T11:45:11Z</time>
      </trkpt>
      <trkpt lat="49.64031" lon="4.96773">
        <ele>231.33</ele>
        <time>2020-11-18T11:45:20Z</time>
      </trkpt>
      <trkpt lat="49.6404" lon="4.96747">
        <ele>231.81</ele>
        <time>2020-11-18T11:45:38Z</time>
      </trkpt>
      <trkpt lat="49.64048" lon="4.96719">
        <ele>233.26</ele>
        <time>2020-11-18T11:45:56Z</time>
      </trkpt>
      <trkpt lat="49.64049" lon="4.96716">
        <ele>233.74</ele>
        <time>2020-11-18T11:45:59Z</time>
      </trkpt>
      <trkpt lat="49.64057" lon="4.96684">
        <ele>234.22</ele>
        <time>2020-11-18T11:46:20Z</time>
      </trkpt>
      <trkpt lat="49.64064" lon="4.96654">
        <ele>234.22</ele>
        <time>2020-11-18T11:46:40Z</time>
      </trkpt>
      <trkpt lat="49.64066" lon="4.96648">
        <ele>234.22</ele>
        <time>2020-11-18T11:46:44Z</time>
      </trkpt>
      <trkpt lat="49.64069" lon="4.96638">
        <ele>235.66</ele>
        <time>2020-11-18T11:46:51Z</time>
      </trkpt>
      <trkpt lat="49.64072" lon="4.96632">
        <ele>236.62</ele>
        <time>2020-11-18T11:46:55Z</time>
      </trkpt>
      <trkpt lat="49.64086" lon="4.96611">
        <ele>238.54</ele>
        <time>2020-11-18T11:47:14Z</time>
      </trkpt>
      <trkpt lat="49.64101" lon="4.96593">
        <ele>242.39</ele>
        <time>2020-11-18T11:47:31Z</time>
      </trkpt>
      <trkpt lat="49.64117" lon="4.96573">
        <ele>245.27</ele>
        <time>2020-11-18T11:47:50Z</time>
      </trkpt>
      <trkpt lat="49.64131" lon="4.96557">
        <ele>247.68</ele>
        <time>2020-11-18T11:48:06Z</time>
      </trkpt>
      <trkpt lat="49.64145" lon="4.96541">
        <ele>249.6</ele>
        <time>2020-11-18T11:48:23Z</time>
      </trkpt>
      <trkpt lat="49.64153" lon="4.9653">
        <ele>250.08</ele>
        <time>2020-11-18T11:48:37Z</time>
      </trkpt>
      <trkpt lat="49.64155" lon="4.96528">
        <ele>249.12</ele>
        <time>2020-11-18T11:48:56Z</time>
      </trkpt>
      <trkpt lat="49.64162" lon="4.9652">
        <ele>249.12</ele>
        <time>2020-11-18T11:49:11Z</time>
      </trkpt>
      <trkpt lat="49.64179" lon="4.96501">
        <ele>250.56</ele>
        <time>2020-11-18T11:49:30Z</time>
      </trkpt>
      <trkpt lat="49.64192" lon="4.96485">
        <ele>252</ele>
        <time>2020-11-18T11:49:46Z</time>
      </trkpt>
      <trkpt lat="49.64207" lon="4.96465">
        <ele>252.48</ele>
        <time>2020-11-18T11:50:04Z</time>
      </trkpt>
      <trkpt lat="49.6422" lon="4.96444">
        <ele>253.93</ele>
        <time>2020-11-18T11:50:22Z</time>
      </trkpt>
      <trkpt lat="49.64233" lon="4.96421">
        <ele>257.29</ele>
        <time>2020-11-18T11:50:41Z</time>
      </trkpt>
      <trkpt lat="49.64242" lon="4.96401">
        <ele>259.69</ele>
        <time>2020-11-18T11:50:57Z</time>
      </trkpt>
      <trkpt lat="49.64243" lon="4.964">
        <ele>259.69</ele>
        <time>2020-11-18T11:50:58Z</time>
      </trkpt>
      <trkpt lat="49.64245" lon="4.96398">
        <ele>260.17</ele>
        <time>2020-11-18T11:51:00Z</time>
      </trkpt>
      <trkpt lat="49.64258" lon="4.96377">
        <ele>262.58</ele>
        <time>2020-11-18T11:51:18Z</time>
      </trkpt>
      <trkpt lat="49.64269" lon="4.96357">
        <ele>264.02</ele>
        <time>2020-11-18T11:51:34Z</time>
      </trkpt>
      <trkpt lat="49.64274" lon="4.96352">
        <ele>264.5</ele>
        <time>2020-11-18T11:51:40Z</time>
      </trkpt>
      <trkpt lat="49.64275" lon="4.96349">
        <ele>264.98</ele>
        <time>2020-11-18T11:51:42Z</time>
      </trkpt>
      <trkpt lat="49.64288" lon="4.96334">
        <ele>265.94</ele>
        <time>2020-11-18T11:51:58Z</time>
      </trkpt>
      <trkpt lat="49.64303" lon="4.96315">
        <ele>268.35</ele>
        <time>2020-11-18T11:52:18Z</time>
      </trkpt>
      <trkpt lat="49.64316" lon="4.96299">
        <ele>271.71</ele>
        <time>2020-11-18T11:52:34Z</time>
      </trkpt>
      <trkpt lat="49.64328" lon="4.96277">
        <ele>275.07</ele>
        <time>2020-11-18T11:52:52Z</time>
      </trkpt>
      <trkpt lat="49.64334" lon="4.96263">
        <ele>277</ele>
        <time>2020-11-18T11:53:03Z</time>
      </trkpt>
      <trkpt lat="49.64342" lon="4.96235">
        <ele>279.88</ele>
        <time>2020-11-18T11:53:22Z</time>
      </trkpt>
      <trkpt lat="49.64345" lon="4.96228">
        <ele>279.88</ele>
        <time>2020-11-18T11:53:36Z</time>
      </trkpt>
      <trkpt lat="49.64345" lon="4.96227">
        <ele>280.36</ele>
        <time>2020-11-18T11:53:53Z</time>
      </trkpt>
      <trkpt lat="49.64345" lon="4.96228">
        <ele>283.25</ele>
        <time>2020-11-18T11:54:15Z</time>
      </trkpt>
      <trkpt lat="49.64344" lon="4.96227">
        <ele>282.77</ele>
        <time>2020-11-18T11:54:41Z</time>
      </trkpt>
      <trkpt lat="49.64343" lon="4.96227">
        <ele>283.25</ele>
        <time>2020-11-18T11:55:04Z</time>
      </trkpt>
      <trkpt lat="49.64343" lon="4.96227">
        <ele>283.73</ele>
        <time>2020-11-18T11:55:14Z</time>
      </trkpt>
      <trkpt lat="49.64343" lon="4.96226">
        <ele>284.69</ele>
        <time>2020-11-18T11:55:37Z</time>
      </trkpt>
      <trkpt lat="49.64344" lon="4.96226">
        <ele>284.69</ele>
        <time>2020-11-18T11:56:01Z</time>
      </trkpt>
      <trkpt lat="49.64346" lon="4.96218">
        <ele>284.21</ele>
        <time>2020-11-18T11:56:20Z</time>
      </trkpt>
      <trkpt lat="49.64347" lon="4.9621">
        <ele>284.21</ele>
        <time>2020-11-18T11:56:25Z</time>
      </trkpt>
      <trkpt lat="49.64357" lon="4.96184">
        <ele>285.65</ele>
        <time>2020-11-18T11:56:42Z</time>
      </trkpt>
      <trkpt lat="49.64367" lon="4.96162">
        <ele>287.09</ele>
        <time>2020-11-18T11:56:58Z</time>
      </trkpt>
      <trkpt lat="49.64377" lon="4.96144">
        <ele>286.13</ele>
        <time>2020-11-18T11:57:13Z</time>
      </trkpt>
      <trkpt lat="49.64392" lon="4.96119">
        <ele>285.65</ele>
        <time>2020-11-18T11:57:33Z</time>
      </trkpt>
      <trkpt lat="49.64403" lon="4.96101">
        <ele>286.61</ele>
        <time>2020-11-18T11:57:49Z</time>
      </trkpt>
      <trkpt lat="49.64416" lon="4.96087">
        <ele>288.53</ele>
        <time>2020-11-18T11:58:04Z</time>
      </trkpt>
      <trkpt lat="49.64432" lon="4.96071">
        <ele>290.46</ele>
        <time>2020-11-18T11:58:22Z</time>
      </trkpt>
      <trkpt lat="49.64438" lon="4.96062">
        <ele>289.97</ele>
        <time>2020-11-18T11:58:38Z</time>
      </trkpt>
      <trkpt lat="49.6444" lon="4.96053">
        <ele>290.46</ele>
        <time>2020-11-18T11:58:55Z</time>
      </trkpt>
      <trkpt lat="49.64445" lon="4.96048">
        <ele>291.42</ele>
        <time>2020-11-18T11:59:11Z</time>
      </trkpt>
      <trkpt lat="49.64454" lon="4.96045">
        <ele>293.34</ele>
        <time>2020-11-18T11:59:27Z</time>
      </trkpt>
      <trkpt lat="49.64464" lon="4.96043">
        <ele>293.34</ele>
        <time>2020-11-18T11:59:43Z</time>
      </trkpt>
      <trkpt lat="49.64466" lon="4.96043">
        <ele>293.34</ele>
        <time>2020-11-18T11:59:45Z</time>
      </trkpt>
      <trkpt lat="49.64484" lon="4.96039">
        <ele>292.86</ele>
        <time>2020-11-18T12:00:01Z</time>
      </trkpt>
      <trkpt lat="49.64502" lon="4.96045">
        <ele>291.42</ele>
        <time>2020-11-18T12:00:19Z</time>
      </trkpt>
      <trkpt lat="49.64512" lon="4.96068">
        <ele>288.53</ele>
        <time>2020-11-18T12:00:37Z</time>
      </trkpt>
      <trkpt lat="49.64521" lon="4.96095">
        <ele>288.05</ele>
        <time>2020-11-18T12:00:58Z</time>
      </trkpt>
      <trkpt lat="49.64527" lon="4.96105">
        <ele>288.05</ele>
        <time>2020-11-18T12:01:17Z</time>
      </trkpt>
      <trkpt lat="49.64534" lon="4.96127">
        <ele>283.25</ele>
        <time>2020-11-18T12:01:35Z</time>
      </trkpt>
      <trkpt lat="49.6454" lon="4.96151">
        <ele>277.96</ele>
        <time>2020-11-18T12:01:55Z</time>
      </trkpt>
      <trkpt lat="49.64544" lon="4.96177">
        <ele>274.59</ele>
        <time>2020-11-18T12:02:15Z</time>
      </trkpt>
      <trkpt lat="49.64551" lon="4.96195">
        <ele>273.15</ele>
        <time>2020-11-18T12:02:33Z</time>
      </trkpt>
      <trkpt lat="49.64555" lon="4.96211">
        <ele>272.19</ele>
        <time>2020-11-18T12:02:53Z</time>
      </trkpt>
      <trkpt lat="49.64562" lon="4.9623">
        <ele>271.23</ele>
        <time>2020-11-18T12:03:10Z</time>
      </trkpt>
      <trkpt lat="49.6457" lon="4.96256">
        <ele>271.23</ele>
        <time>2020-11-18T12:03:30Z</time>
      </trkpt>
      <trkpt lat="49.64576" lon="4.96278">
        <ele>268.35</ele>
        <time>2020-11-18T12:03:46Z</time>
      </trkpt>
      <trkpt lat="49.64584" lon="4.96295">
        <ele>264.5</ele>
        <time>2020-11-18T12:04:02Z</time>
      </trkpt>
      <trkpt lat="49.64588" lon="4.96312">
        <ele>261.62</ele>
        <time>2020-11-18T12:04:18Z</time>
      </trkpt>
      <trkpt lat="49.64595" lon="4.96334">
        <ele>257.29</ele>
        <time>2020-11-18T12:04:36Z</time>
      </trkpt>
      <trkpt lat="49.64601" lon="4.96362">
        <ele>259.69</ele>
        <time>2020-11-18T12:04:56Z</time>
      </trkpt>
      <trkpt lat="49.64606" lon="4.96385">
        <ele>261.14</ele>
        <time>2020-11-18T12:05:12Z</time>
      </trkpt>
      <trkpt lat="49.64616" lon="4.96415">
        <ele>256.81</ele>
        <time>2020-11-18T12:05:31Z</time>
      </trkpt>
      <trkpt lat="49.64625" lon="4.96436">
        <ele>252</ele>
        <time>2020-11-18T12:05:50Z</time>
      </trkpt>
      <trkpt lat="49.64635" lon="4.96456">
        <ele>249.6</ele>
        <time>2020-11-18T12:06:06Z</time>
      </trkpt>
      <trkpt lat="49.64647" lon="4.96486">
        <ele>248.64</ele>
        <time>2020-11-18T12:06:24Z</time>
      </trkpt>
      <trkpt lat="49.64656" lon="4.96514">
        <ele>247.68</ele>
        <time>2020-11-18T12:06:43Z</time>
      </trkpt>
      <trkpt lat="49.64657" lon="4.96518">
        <ele>247.68</ele>
        <time>2020-11-18T12:06:45Z</time>
      </trkpt>
      <trkpt lat="49.64661" lon="4.96547">
        <ele>248.16</ele>
        <time>2020-11-18T12:07:02Z</time>
      </trkpt>
      <trkpt lat="49.64664" lon="4.96563">
        <ele>248.64</ele>
        <time>2020-11-18T12:07:12Z</time>
      </trkpt>
      <trkpt lat="49.64666" lon="4.96591">
        <ele>249.12</ele>
        <time>2020-11-18T12:07:29Z</time>
      </trkpt>
      <trkpt lat="49.64664" lon="4.96622">
        <ele>252.48</ele>
        <time>2020-11-18T12:07:49Z</time>
      </trkpt>
      <trkpt lat="49.64661" lon="4.96645">
        <ele>256.33</ele>
        <time>2020-11-18T12:08:05Z</time>
      </trkpt>
      <trkpt lat="49.64663" lon="4.9667">
        <ele>255.37</ele>
        <time>2020-11-18T12:08:19Z</time>
      </trkpt>
      <trkpt lat="49.64666" lon="4.96691">
        <ele>252.96</ele>
        <time>2020-11-18T12:08:34Z</time>
      </trkpt>
      <trkpt lat="49.64671" lon="4.96716">
        <ele>250.56</ele>
        <time>2020-11-18T12:08:49Z</time>
      </trkpt>
      <trkpt lat="49.64672" lon="4.96742">
        <ele>248.64</ele>
        <time>2020-11-18T12:09:02Z</time>
      </trkpt>
      <trkpt lat="49.64677" lon="4.96768">
        <ele>246.23</ele>
        <time>2020-11-18T12:09:19Z</time>
      </trkpt>
      <trkpt lat="49.64683" lon="4.96793">
        <ele>245.27</ele>
        <time>2020-11-18T12:09:34Z</time>
      </trkpt>
      <trkpt lat="49.64686" lon="4.96818">
        <ele>245.75</ele>
        <time>2020-11-18T12:09:50Z</time>
      </trkpt>
      <trkpt lat="49.6469" lon="4.96838">
        <ele>245.27</ele>
        <time>2020-11-18T12:10:07Z</time>
      </trkpt>
      <trkpt lat="49.64696" lon="4.96861">
        <ele>245.75</ele>
        <time>2020-11-18T12:10:24Z</time>
      </trkpt>
      <trkpt lat="49.64704" lon="4.96881">
        <ele>244.79</ele>
        <time>2020-11-18T12:10:39Z</time>
      </trkpt>
      <trkpt lat="49.64711" lon="4.96903">
        <ele>246.72</ele>
        <time>2020-11-18T12:10:54Z</time>
      </trkpt>
      <trkpt lat="49.64716" lon="4.9692">
        <ele>245.75</ele>
        <time>2020-11-18T12:11:09Z</time>
      </trkpt>
      <trkpt lat="49.64717" lon="4.96925">
        <ele>245.75</ele>
        <time>2020-11-18T12:11:13Z</time>
      </trkpt>
      <trkpt lat="49.6472" lon="4.96932">
        <ele>244.79</ele>
        <time>2020-11-18T12:11:18Z</time>
      </trkpt>
      <trkpt lat="49.64726" lon="4.96962">
        <ele>244.79</ele>
        <time>2020-11-18T12:11:35Z</time>
      </trkpt>
      <trkpt lat="49.64729" lon="4.96966">
        <ele>245.27</ele>
        <time>2020-11-18T12:11:39Z</time>
      </trkpt>
      <trkpt lat="49.64735" lon="4.9699">
        <ele>245.27</ele>
        <time>2020-11-18T12:11:54Z</time>
      </trkpt>
      <trkpt lat="49.64735" lon="4.96996">
        <ele>244.79</ele>
        <time>2020-11-18T12:11:58Z</time>
      </trkpt>
      <trkpt lat="49.64741" lon="4.97024">
        <ele>245.27</ele>
        <time>2020-11-18T12:12:16Z</time>
      </trkpt>
      <trkpt lat="49.64744" lon="4.97051">
        <ele>244.79</ele>
        <time>2020-11-18T12:12:31Z</time>
      </trkpt>
      <trkpt lat="49.64744" lon="4.97059">
        <ele>244.31</ele>
        <time>2020-11-18T12:12:36Z</time>
      </trkpt>
      <trkpt lat="49.64745" lon="4.97092">
        <ele>243.83</ele>
        <time>2020-11-18T12:12:55Z</time>
      </trkpt>
      <trkpt lat="49.64744" lon="4.971">
        <ele>243.83</ele>
        <time>2020-11-18T12:13:00Z</time>
      </trkpt>
      <trkpt lat="49.6474" lon="4.97131">
        <ele>241.43</ele>
        <time>2020-11-18T12:13:19Z</time>
      </trkpt>
      <trkpt lat="49.64738" lon="4.97164">
        <ele>240.95</ele>
        <time>2020-11-18T12:13:39Z</time>
      </trkpt>
      <trkpt lat="49.64736" lon="4.97193">
        <ele>240.47</ele>
        <time>2020-11-18T12:13:56Z</time>
      </trkpt>
      <trkpt lat="49.64737" lon="4.97222">
        <ele>240.47</ele>
        <time>2020-11-18T12:14:14Z</time>
      </trkpt>
      <trkpt lat="49.64744" lon="4.97249">
        <ele>239.99</ele>
        <time>2020-11-18T12:14:32Z</time>
      </trkpt>
      <trkpt lat="49.64759" lon="4.97273">
        <ele>238.06</ele>
        <time>2020-11-18T12:14:51Z</time>
      </trkpt>
      <trkpt lat="49.64776" lon="4.97293">
        <ele>236.62</ele>
        <time>2020-11-18T12:15:10Z</time>
      </trkpt>
      <trkpt lat="49.6479" lon="4.97313">
        <ele>232.78</ele>
        <time>2020-11-18T12:15:29Z</time>
      </trkpt>
      <trkpt lat="49.64814" lon="4.97336">
        <ele>230.37</ele>
        <time>2020-11-18T12:15:53Z</time>
      </trkpt>
      <trkpt lat="49.64831" lon="4.97352">
        <ele>228.93</ele>
        <time>2020-11-18T12:16:12Z</time>
      </trkpt>
      <trkpt lat="49.64852" lon="4.9737">
        <ele>227.97</ele>
        <time>2020-11-18T12:16:33Z</time>
      </trkpt>
      <trkpt lat="49.64873" lon="4.97394">
        <ele>225.57</ele>
        <time>2020-11-18T12:16:55Z</time>
      </trkpt>
      <trkpt lat="49.6489" lon="4.97412">
        <ele>225.57</ele>
        <time>2020-11-18T12:17:13Z</time>
      </trkpt>
      <trkpt lat="49.64904" lon="4.97439">
        <ele>221.24</ele>
        <time>2020-11-18T12:17:34Z</time>
      </trkpt>
      <trkpt lat="49.64919" lon="4.97461">
        <ele>219.8</ele>
        <time>2020-11-18T12:17:53Z</time>
      </trkpt>
      <trkpt lat="49.6493" lon="4.97485">
        <ele>218.84</ele>
        <time>2020-11-18T12:18:11Z</time>
      </trkpt>
      <trkpt lat="49.6494" lon="4.97503">
        <ele>218.84</ele>
        <time>2020-11-18T12:18:25Z</time>
      </trkpt>
      <trkpt lat="49.64946" lon="4.97529">
        <ele>216.91</ele>
        <time>2020-11-18T12:18:43Z</time>
      </trkpt>
      <trkpt lat="49.6495" lon="4.97556">
        <ele>216.43</ele>
        <time>2020-11-18T12:19:01Z</time>
      </trkpt>
      <trkpt lat="49.6495" lon="4.97558">
        <ele>216.43</ele>
        <time>2020-11-18T12:19:02Z</time>
      </trkpt>
      <trkpt lat="49.64946" lon="4.97588">
        <ele>214.99</ele>
        <time>2020-11-18T12:19:19Z</time>
      </trkpt>
      <trkpt lat="49.64941" lon="4.97611">
        <ele>214.99</ele>
        <time>2020-11-18T12:19:36Z</time>
      </trkpt>
      <trkpt lat="49.64934" lon="4.97632">
        <ele>213.55</ele>
        <time>2020-11-18T12:19:52Z</time>
      </trkpt>
      <trkpt lat="49.64928" lon="4.97656">
        <ele>212.11</ele>
        <time>2020-11-18T12:20:08Z</time>
      </trkpt>
      <trkpt lat="49.6492" lon="4.97675">
        <ele>210.19</ele>
        <time>2020-11-18T12:20:22Z</time>
      </trkpt>
      <trkpt lat="49.64917" lon="4.97681">
        <ele>209.7</ele>
        <time>2020-11-18T12:20:26Z</time>
      </trkpt>
      <trkpt lat="49.64906" lon="4.97713">
        <ele>206.34</ele>
        <time>2020-11-18T12:20:48Z</time>
      </trkpt>
      <trkpt lat="49.64901" lon="4.97745">
        <ele>204.42</ele>
        <time>2020-11-18T12:21:09Z</time>
      </trkpt>
      <trkpt lat="49.64899" lon="4.9778">
        <ele>202.49</ele>
        <time>2020-11-18T12:21:30Z</time>
      </trkpt>
      <trkpt lat="49.64899" lon="4.97796">
        <ele>201.05</ele>
        <time>2020-11-18T12:21:47Z</time>
      </trkpt>
      <trkpt lat="49.64901" lon="4.97819">
        <ele>199.13</ele>
        <time>2020-11-18T12:22:03Z</time>
      </trkpt>
      <trkpt lat="49.649" lon="4.97851">
        <ele>197.69</ele>
        <time>2020-11-18T12:22:23Z</time>
      </trkpt>
      <trkpt lat="49.649" lon="4.97883">
        <ele>196.25</ele>
        <time>2020-11-18T12:22:42Z</time>
      </trkpt>
      <trkpt lat="49.64901" lon="4.97919">
        <ele>194.32</ele>
        <time>2020-11-18T12:23:03Z</time>
      </trkpt>
      <trkpt lat="49.64908" lon="4.97944">
        <ele>193.84</ele>
        <time>2020-11-18T12:23:21Z</time>
      </trkpt>
      <trkpt lat="49.64917" lon="4.9798">
        <ele>190</ele>
        <time>2020-11-18T12:23:44Z</time>
      </trkpt>
      <trkpt lat="49.64925" lon="4.98009">
        <ele>188.08</ele>
        <time>2020-11-18T12:24:04Z</time>
      </trkpt>
      <trkpt lat="49.64933" lon="4.98038">
        <ele>186.15</ele>
        <time>2020-11-18T12:24:24Z</time>
      </trkpt>
      <trkpt lat="49.6494" lon="4.98064">
        <ele>184.71</ele>
        <time>2020-11-18T12:24:42Z</time>
      </trkpt>
      <trkpt lat="49.64943" lon="4.98083">
        <ele>182.31</ele>
        <time>2020-11-18T12:24:54Z</time>
      </trkpt>
      <trkpt lat="49.64948" lon="4.98103">
        <ele>182.31</ele>
        <time>2020-11-18T12:25:08Z</time>
      </trkpt>
      <trkpt lat="49.64951" lon="4.98121">
        <ele>181.35</ele>
        <time>2020-11-18T12:25:19Z</time>
      </trkpt>
      <trkpt lat="49.64953" lon="4.98137">
        <ele>180.87</ele>
        <time>2020-11-18T12:25:29Z</time>
      </trkpt>
      <trkpt lat="49.64955" lon="4.98164">
        <ele>179.9</ele>
        <time>2020-11-18T12:25:46Z</time>
      </trkpt>
      <trkpt lat="49.64957" lon="4.9819">
        <ele>178.94</ele>
        <time>2020-11-18T12:26:02Z</time>
      </trkpt>
      <trkpt lat="49.64961" lon="4.9822">
        <ele>177.98</ele>
        <time>2020-11-18T12:26:20Z</time>
      </trkpt>
      <trkpt lat="49.64961" lon="4.98225">
        <ele>177.5</ele>
        <time>2020-11-18T12:26:23Z</time>
      </trkpt>
      <trkpt lat="49.64959" lon="4.98261">
        <ele>176.06</ele>
        <time>2020-11-18T12:26:44Z</time>
      </trkpt>
      <trkpt lat="49.64951" lon="4.98292">
        <ele>173.17</ele>
        <time>2020-11-18T12:27:04Z</time>
      </trkpt>
      <trkpt lat="49.64942" lon="4.98323">
        <ele>172.21</ele>
        <time>2020-11-18T12:27:24Z</time>
      </trkpt>
      <trkpt lat="49.64935" lon="4.98356">
        <ele>170.77</ele>
        <time>2020-11-18T12:27:44Z</time>
      </trkpt>
      <trkpt lat="49.64928" lon="4.98382">
        <ele>167.89</ele>
        <time>2020-11-18T12:28:01Z</time>
      </trkpt>
      <trkpt lat="49.64919" lon="4.98407">
        <ele>167.89</ele>
        <time>2020-11-18T12:28:19Z</time>
      </trkpt>
      <trkpt lat="49.64908" lon="4.98432">
        <ele>164.52</ele>
        <time>2020-11-18T12:28:38Z</time>
      </trkpt>
      <trkpt lat="49.64899" lon="4.98454">
        <ele>163.56</ele>
        <time>2020-11-18T12:28:55Z</time>
      </trkpt>
      <trkpt lat="49.64892" lon="4.98478">
        <ele>161.64</ele>
        <time>2020-11-18T12:29:11Z</time>
      </trkpt>
      <trkpt lat="49.64892" lon="4.9848">
        <ele>161.64</ele>
        <time>2020-11-18T12:29:12Z</time>
      </trkpt>
      <trkpt lat="49.64888" lon="4.98508">
        <ele>159.72</ele>
        <time>2020-11-18T12:29:31Z</time>
      </trkpt>
      <trkpt lat="49.64883" lon="4.98538">
        <ele>157.79</ele>
        <time>2020-11-18T12:29:49Z</time>
      </trkpt>
      <trkpt lat="49.64879" lon="4.98563">
        <ele>156.83</ele>
        <time>2020-11-18T12:30:05Z</time>
      </trkpt>
      <trkpt lat="49.64877" lon="4.98584">
        <ele>155.87</ele>
        <time>2020-11-18T12:30:17Z</time>
      </trkpt>
      <trkpt lat="49.6488" lon="4.98602">
        <ele>154.91</ele>
        <time>2020-11-18T12:30:30Z</time>
      </trkpt>
      <trkpt lat="49.64883" lon="4.9862">
        <ele>153.47</ele>
        <time>2020-11-18T12:30:41Z</time>
      </trkpt>
      <trkpt lat="49.64898" lon="4.98648">
        <ele>151.54</ele>
        <time>2020-11-18T12:31:02Z</time>
      </trkpt>
      <trkpt lat="49.64916" lon="4.98667">
        <ele>151.06</ele>
        <time>2020-11-18T12:31:24Z</time>
      </trkpt>
      <trkpt lat="49.6492" lon="4.98677">
        <ele>152.03</ele>
        <time>2020-11-18T12:31:38Z</time>
      </trkpt>
      <trkpt lat="49.6492" lon="4.98685">
        <ele>152.51</ele>
        <time>2020-11-18T12:31:49Z</time>
      </trkpt>
      <trkpt lat="49.64914" lon="4.98693">
        <ele>152.51</ele>
        <time>2020-11-18T12:31:58Z</time>
      </trkpt>
      <trkpt lat="49.64911" lon="4.98694">
        <ele>152.51</ele>
        <time>2020-11-18T12:32:02Z</time>
      </trkpt>
      <trkpt lat="49.64891" lon="4.98695">
        <ele>152.03</ele>
        <time>2020-11-18T12:32:20Z</time>
      </trkpt>
      <trkpt lat="49.64884" lon="4.98694">
        <ele>151.54</ele>
        <time>2020-11-18T12:32:27Z</time>
      </trkpt>
      <trkpt lat="49.64873" lon="4.98693">
        <ele>151.54</ele>
        <time>2020-11-18T12:32:37Z</time>
      </trkpt>
      <trkpt lat="49.64854" lon="4.98687">
        <ele>154.43</ele>
        <time>2020-11-18T12:32:54Z</time>
      </trkpt>
      <trkpt lat="49.64833" lon="4.98676">
        <ele>156.83</ele>
        <time>2020-11-18T12:33:14Z</time>
      </trkpt>
      <trkpt lat="49.64813" lon="4.98663">
        <ele>160.68</ele>
        <time>2020-11-18T12:33:33Z</time>
      </trkpt>
      <trkpt lat="49.64796" lon="4.98655">
        <ele>159.24</ele>
        <time>2020-11-18T12:33:51Z</time>
      </trkpt>
      <trkpt lat="49.64782" lon="4.98655">
        <ele>156.35</ele>
        <time>2020-11-18T12:34:08Z</time>
      </trkpt>
      <trkpt lat="49.64777" lon="4.98686">
        <ele>152.99</ele>
        <time>2020-11-18T12:34:27Z</time>
      </trkpt>
      <trkpt lat="49.64774" lon="4.98708">
        <ele>150.1</ele>
        <time>2020-11-18T12:34:42Z</time>
      </trkpt>
      <trkpt lat="49.64771" lon="4.98736">
        <ele>150.58</ele>
        <time>2020-11-18T12:34:56Z</time>
      </trkpt>
      <trkpt lat="49.64765" lon="4.98759">
        <ele>155.87</ele>
        <time>2020-11-18T12:35:10Z</time>
      </trkpt>
      <trkpt lat="49.64761" lon="4.98787">
        <ele>155.87</ele>
        <time>2020-11-18T12:35:28Z</time>
      </trkpt>
      <trkpt lat="49.64761" lon="4.98805">
        <ele>156.35</ele>
        <time>2020-11-18T12:35:43Z</time>
      </trkpt>
      <trkpt lat="49.6477" lon="4.98818">
        <ele>154.43</ele>
        <time>2020-11-18T12:35:56Z</time>
      </trkpt>
      <trkpt lat="49.64773" lon="4.98821">
        <ele>153.47</ele>
        <time>2020-11-18T12:35:59Z</time>
      </trkpt>
      <trkpt lat="49.64775" lon="4.98824">
        <ele>152.99</ele>
        <time>2020-11-18T12:36:01Z</time>
      </trkpt>
      <trkpt lat="49.64793" lon="4.98836">
        <ele>148.66</ele>
        <time>2020-11-18T12:36:21Z</time>
      </trkpt>
      <trkpt lat="49.64811" lon="4.98845">
        <ele>146.26</ele>
        <time>2020-11-18T12:36:38Z</time>
      </trkpt>
      <trkpt lat="49.64829" lon="4.98854">
        <ele>143.85</ele>
        <time>2020-11-18T12:36:55Z</time>
      </trkpt>
      <trkpt lat="49.6484" lon="4.98862">
        <ele>137.61</ele>
        <time>2020-11-18T12:37:13Z</time>
      </trkpt>
      <trkpt lat="49.64853" lon="4.98867">
        <ele>133.76</ele>
        <time>2020-11-18T12:37:30Z</time>
      </trkpt>
      <trkpt lat="49.64871" lon="4.98876">
        <ele>132.8</ele>
        <time>2020-11-18T12:37:48Z</time>
      </trkpt>
      <trkpt lat="49.64888" lon="4.98886">
        <ele>144.82</ele>
        <time>2020-11-18T12:37:56Z</time>
      </trkpt>
      <trkpt lat="49.64917" lon="4.98901">
        <ele>153.95</ele>
        <time>2020-11-18T12:38:16Z</time>
      </trkpt>
      <trkpt lat="49.64935" lon="4.9891">
        <ele>153.47</ele>
        <time>2020-11-18T12:38:34Z</time>
      </trkpt>
      <trkpt lat="49.6494" lon="4.98915">
        <ele>152.99</ele>
        <time>2020-11-18T12:38:45Z</time>
      </trkpt>
      <trkpt lat="49.64961" lon="4.98936">
        <ele>157.79</ele>
        <time>2020-11-18T12:39:01Z</time>
      </trkpt>
      <trkpt lat="49.64961" lon="4.9895">
        <ele>153.95</ele>
        <time>2020-11-18T12:39:16Z</time>
      </trkpt>
      <trkpt lat="49.64959" lon="4.9895">
        <ele>152.99</ele>
        <time>2020-11-18T12:39:19Z</time>
      </trkpt>
      <trkpt lat="49.64956" lon="4.98952">
        <ele>152.99</ele>
        <time>2020-11-18T12:39:22Z</time>
      </trkpt>
      <trkpt lat="49.64947" lon="4.98975">
        <ele>153.95</ele>
        <time>2020-11-18T12:39:39Z</time>
      </trkpt>
      <trkpt lat="49.64938" lon="4.98998">
        <ele>156.35</ele>
        <time>2020-11-18T12:39:56Z</time>
      </trkpt>
      <trkpt lat="49.64934" lon="4.99014">
        <ele>157.31</ele>
        <time>2020-11-18T12:40:09Z</time>
      </trkpt>
      <trkpt lat="49.64935" lon="4.99046">
        <ele>156.83</ele>
        <time>2020-11-18T12:40:27Z</time>
      </trkpt>
      <trkpt lat="49.64943" lon="4.99064">
        <ele>152.99</ele>
        <time>2020-11-18T12:40:42Z</time>
      </trkpt>
      <trkpt lat="49.64947" lon="4.99074">
        <ele>150.58</ele>
        <time>2020-11-18T12:40:57Z</time>
      </trkpt>
      <trkpt lat="49.64953" lon="4.99076">
        <ele>153.95</ele>
        <time>2020-11-18T12:41:19Z</time>
      </trkpt>
      <trkpt lat="49.64954" lon="4.99076">
        <ele>155.87</ele>
        <time>2020-11-18T12:41:44Z</time>
      </trkpt>
      <trkpt lat="49.64955" lon="4.99077">
        <ele>156.35</ele>
        <time>2020-11-18T12:42:07Z</time>
      </trkpt>
      <trkpt lat="49.64955" lon="4.99078">
        <ele>156.35</ele>
        <time>2020-11-18T12:42:08Z</time>
      </trkpt>
      <trkpt lat="49.6496" lon="4.99099">
        <ele>152.03</ele>
        <time>2020-11-18T12:42:22Z</time>
      </trkpt>
      <trkpt lat="49.64961" lon="4.99104">
        <ele>151.06</ele>
        <time>2020-11-18T12:42:25Z</time>
      </trkpt>
      <trkpt lat="49.64963" lon="4.99115">
        <ele>154.43</ele>
        <time>2020-11-18T12:42:42Z</time>
      </trkpt>
      <trkpt lat="49.64963" lon="4.99121">
        <ele>157.31</ele>
        <time>2020-11-18T12:43:05Z</time>
      </trkpt>
      <trkpt lat="49.6496" lon="4.99123">
        <ele>158.27</ele>
        <time>2020-11-18T12:43:09Z</time>
      </trkpt>
      <trkpt lat="49.64952" lon="4.99125">
        <ele>159.72</ele>
        <time>2020-11-18T12:43:24Z</time>
      </trkpt>
      <trkpt lat="49.64951" lon="4.99127">
        <ele>159.72</ele>
        <time>2020-11-18T12:43:51Z</time>
      </trkpt>
      <trkpt lat="49.6495" lon="4.99128">
        <ele>159.72</ele>
        <time>2020-11-18T12:44:16Z</time>
      </trkpt>
      <trkpt lat="49.6495" lon="4.99128">
        <ele>159.72</ele>
        <time>2020-11-18T12:44:35Z</time>
      </trkpt>
      <trkpt lat="49.64949" lon="4.99128">
        <ele>159.24</ele>
        <time>2020-11-18T12:45:05Z</time>
      </trkpt>
      <trkpt lat="49.64947" lon="4.99131">
        <ele>159.24</ele>
        <time>2020-11-18T12:45:11Z</time>
      </trkpt>
      <trkpt lat="49.64937" lon="4.9915">
        <ele>161.16</ele>
        <time>2020-11-18T12:45:25Z</time>
      </trkpt>
      <trkpt lat="49.64935" lon="4.99154">
        <ele>161.64</ele>
        <time>2020-11-18T12:45:28Z</time>
      </trkpt>
      <trkpt lat="49.64921" lon="4.99174">
        <ele>164.52</ele>
        <time>2020-11-18T12:45:43Z</time>
      </trkpt>
      <trkpt lat="49.64909" lon="4.99189">
        <ele>167.41</ele>
        <time>2020-11-18T12:45:57Z</time>
      </trkpt>
      <trkpt lat="49.64897" lon="4.99203">
        <ele>168.37</ele>
        <time>2020-11-18T12:46:11Z</time>
      </trkpt>
      <trkpt lat="49.64887" lon="4.99201">
        <ele>169.33</ele>
        <time>2020-11-18T12:46:21Z</time>
      </trkpt>
      <trkpt lat="49.64881" lon="4.99202">
        <ele>169.81</ele>
        <time>2020-11-18T12:46:26Z</time>
      </trkpt>
      <trkpt lat="49.64879" lon="4.99201">
        <ele>169.81</ele>
        <time>2020-11-18T12:46:28Z</time>
      </trkpt>
      <trkpt lat="49.6487" lon="4.99192">
        <ele>170.77</ele>
        <time>2020-11-18T12:46:39Z</time>
      </trkpt>
      <trkpt lat="49.64855" lon="4.99177">
        <ele>172.21</ele>
        <time>2020-11-18T12:46:54Z</time>
      </trkpt>
      <trkpt lat="49.6484" lon="4.99164">
        <ele>171.73</ele>
        <time>2020-11-18T12:47:10Z</time>
      </trkpt>
      <trkpt lat="49.64824" lon="4.99159">
        <ele>168.85</ele>
        <time>2020-11-18T12:47:27Z</time>
      </trkpt>
      <trkpt lat="49.64821" lon="4.99157">
        <ele>170.29</ele>
        <time>2020-11-18T12:47:42Z</time>
      </trkpt>
      <trkpt lat="49.6482" lon="4.99159">
        <ele>170.29</ele>
        <time>2020-11-18T12:47:57Z</time>
      </trkpt>
      <trkpt lat="49.64803" lon="4.99185">
        <ele>170.77</ele>
        <time>2020-11-18T12:48:16Z</time>
      </trkpt>
      <trkpt lat="49.64785" lon="4.9921">
        <ele>175.58</ele>
        <time>2020-11-18T12:48:35Z</time>
      </trkpt>
      <trkpt lat="49.64778" lon="4.99228">
        <ele>174.14</ele>
        <time>2020-11-18T12:48:51Z</time>
      </trkpt>
      <trkpt lat="49.64764" lon="4.9925">
        <ele>172.69</ele>
        <time>2020-11-18T12:49:09Z</time>
      </trkpt>
      <trkpt lat="49.64762" lon="4.99253">
        <ele>172.69</ele>
        <time>2020-11-18T12:49:11Z</time>
      </trkpt>
      <trkpt lat="49.64746" lon="4.99274">
        <ele>174.62</ele>
        <time>2020-11-18T12:49:30Z</time>
      </trkpt>
      <trkpt lat="49.64735" lon="4.99289">
        <ele>177.98</ele>
        <time>2020-11-18T12:49:45Z</time>
      </trkpt>
      <trkpt lat="49.64719" lon="4.99306">
        <ele>180.87</ele>
        <time>2020-11-18T12:50:04Z</time>
      </trkpt>
      <trkpt lat="49.6471" lon="4.99324">
        <ele>181.35</ele>
        <time>2020-11-18T12:50:21Z</time>
      </trkpt>
      <trkpt lat="49.64705" lon="4.9933">
        <ele>181.83</ele>
        <time>2020-11-18T12:50:27Z</time>
      </trkpt>
      <trkpt lat="49.64697" lon="4.99336">
        <ele>183.27</ele>
        <time>2020-11-18T12:50:32Z</time>
      </trkpt>
      <trkpt lat="49.6467" lon="4.99358">
        <ele>185.67</ele>
        <time>2020-11-18T12:50:53Z</time>
      </trkpt>
      <trkpt lat="49.64648" lon="4.99381">
        <ele>185.19</ele>
        <time>2020-11-18T12:51:14Z</time>
      </trkpt>
      <trkpt lat="49.64632" lon="4.99399">
        <ele>187.59</ele>
        <time>2020-11-18T12:51:33Z</time>
      </trkpt>
      <trkpt lat="49.64622" lon="4.9941">
        <ele>189.52</ele>
        <time>2020-11-18T12:51:45Z</time>
      </trkpt>
      <trkpt lat="49.64606" lon="4.99426">
        <ele>190.96</ele>
        <time>2020-11-18T12:52:02Z</time>
      </trkpt>
      <trkpt lat="49.64588" lon="4.99448">
        <ele>191.92</ele>
        <time>2020-11-18T12:52:22Z</time>
      </trkpt>
      <trkpt lat="49.64571" lon="4.99467">
        <ele>193.36</ele>
        <time>2020-11-18T12:52:42Z</time>
      </trkpt>
      <trkpt lat="49.64555" lon="4.99484">
        <ele>194.32</ele>
        <time>2020-11-18T12:53:00Z</time>
      </trkpt>
      <trkpt lat="49.64536" lon="4.99505">
        <ele>195.28</ele>
        <time>2020-11-18T12:53:20Z</time>
      </trkpt>
      <trkpt lat="49.64519" lon="4.99524">
        <ele>198.17</ele>
        <time>2020-11-18T12:53:41Z</time>
      </trkpt>
      <trkpt lat="49.64506" lon="4.99541">
        <ele>201.05</ele>
        <time>2020-11-18T12:53:58Z</time>
      </trkpt>
      <trkpt lat="49.645" lon="4.99548">
        <ele>202.01</ele>
        <time>2020-11-18T12:54:05Z</time>
      </trkpt>
      <trkpt lat="49.64491" lon="4.99559">
        <ele>203.94</ele>
        <time>2020-11-18T12:54:15Z</time>
      </trkpt>
      <trkpt lat="49.64475" lon="4.99581">
        <ele>204.42</ele>
        <time>2020-11-18T12:54:34Z</time>
      </trkpt>
      <trkpt lat="49.64461" lon="4.99595">
        <ele>205.86</ele>
        <time>2020-11-18T12:54:50Z</time>
      </trkpt>
      <trkpt lat="49.64441" lon="4.99601">
        <ele>206.34</ele>
        <time>2020-11-18T12:55:08Z</time>
      </trkpt>
      <trkpt lat="49.64421" lon="4.99605">
        <ele>204.9</ele>
        <time>2020-11-18T12:55:27Z</time>
      </trkpt>
      <trkpt lat="49.64404" lon="4.99606">
        <ele>203.94</ele>
        <time>2020-11-18T12:55:43Z</time>
      </trkpt>
      <trkpt lat="49.64384" lon="4.99608">
        <ele>204.42</ele>
        <time>2020-11-18T12:56:02Z</time>
      </trkpt>
      <trkpt lat="49.64362" lon="4.99607">
        <ele>206.34</ele>
        <time>2020-11-18T12:56:23Z</time>
      </trkpt>
      <trkpt lat="49.6434" lon="4.99604">
        <ele>207.78</ele>
        <time>2020-11-18T12:56:44Z</time>
      </trkpt>
      <trkpt lat="49.64321" lon="4.99603">
        <ele>208.26</ele>
        <time>2020-11-18T12:57:02Z</time>
      </trkpt>
      <trkpt lat="49.64299" lon="4.99602">
        <ele>208.26</ele>
        <time>2020-11-18T12:57:22Z</time>
      </trkpt>
      <trkpt lat="49.64278" lon="4.99598">
        <ele>207.78</ele>
        <time>2020-11-18T12:57:41Z</time>
      </trkpt>
      <trkpt lat="49.64257" lon="4.99592">
        <ele>208.74</ele>
        <time>2020-11-18T12:57:59Z</time>
      </trkpt>
      <trkpt lat="49.64247" lon="4.99587">
        <ele>209.7</ele>
        <time>2020-11-18T12:58:08Z</time>
      </trkpt>
      <trkpt lat="49.64225" lon="4.99574">
        <ele>213.55</ele>
        <time>2020-11-18T12:58:27Z</time>
      </trkpt>
      <trkpt lat="49.642" lon="4.99559">
        <ele>216.43</ele>
        <time>2020-11-18T12:58:48Z</time>
      </trkpt>
      <trkpt lat="49.64178" lon="4.99539">
        <ele>218.36</ele>
        <time>2020-11-18T12:59:10Z</time>
      </trkpt>
      <trkpt lat="49.64156" lon="4.99523">
        <ele>219.32</ele>
        <time>2020-11-18T12:59:31Z</time>
      </trkpt>
      <trkpt lat="49.64132" lon="4.9951">
        <ele>221.72</ele>
        <time>2020-11-18T12:59:52Z</time>
      </trkpt>
      <trkpt lat="49.64113" lon="4.99502">
        <ele>223.64</ele>
        <time>2020-11-18T13:00:10Z</time>
      </trkpt>
      <trkpt lat="49.64092" lon="4.99493">
        <ele>224.61</ele>
        <time>2020-11-18T13:00:29Z</time>
      </trkpt>
      <trkpt lat="49.64067" lon="4.99482">
        <ele>228.45</ele>
        <time>2020-11-18T13:00:52Z</time>
      </trkpt>
      <trkpt lat="49.64044" lon="4.99475">
        <ele>229.41</ele>
        <time>2020-11-18T13:01:12Z</time>
      </trkpt>
      <trkpt lat="49.64028" lon="4.99469">
        <ele>229.41</ele>
        <time>2020-11-18T13:01:29Z</time>
      </trkpt>
      <trkpt lat="49.6401" lon="4.99464">
        <ele>230.37</ele>
        <time>2020-11-18T13:01:46Z</time>
      </trkpt>
      <trkpt lat="49.63989" lon="4.99461">
        <ele>231.81</ele>
        <time>2020-11-18T13:02:03Z</time>
      </trkpt>
      <trkpt lat="49.63975" lon="4.99463">
        <ele>233.74</ele>
        <time>2020-11-18T13:02:22Z</time>
      </trkpt>
      <trkpt lat="49.63959" lon="4.9947">
        <ele>234.7</ele>
        <time>2020-11-18T13:02:39Z</time>
      </trkpt>
      <trkpt lat="49.6394" lon="4.99477">
        <ele>234.7</ele>
        <time>2020-11-18T13:02:56Z</time>
      </trkpt>
      <trkpt lat="49.63923" lon="4.99481">
        <ele>234.7</ele>
        <time>2020-11-18T13:03:07Z</time>
      </trkpt>
      <trkpt lat="49.63906" lon="4.99489">
        <ele>239.99</ele>
        <time>2020-11-18T13:03:26Z</time>
      </trkpt>
      <trkpt lat="49.6389" lon="4.99502">
        <ele>242.39</ele>
        <time>2020-11-18T13:03:44Z</time>
      </trkpt>
      <trkpt lat="49.63885" lon="4.99503">
        <ele>243.83</ele>
        <time>2020-11-18T13:04:05Z</time>
      </trkpt>
      <trkpt lat="49.63878" lon="4.99507">
        <ele>244.31</ele>
        <time>2020-11-18T13:04:24Z</time>
      </trkpt>
      <trkpt lat="49.63854" lon="4.99521">
        <ele>248.16</ele>
        <time>2020-11-18T13:04:42Z</time>
      </trkpt>
      <trkpt lat="49.63835" lon="4.99529">
        <ele>250.08</ele>
        <time>2020-11-18T13:05:02Z</time>
      </trkpt>
      <trkpt lat="49.63807" lon="4.9954">
        <ele>250.56</ele>
        <time>2020-11-18T13:05:22Z</time>
      </trkpt>
      <trkpt lat="49.63787" lon="4.9954">
        <ele>255.37</ele>
        <time>2020-11-18T13:05:41Z</time>
      </trkpt>
      <trkpt lat="49.63768" lon="4.99535">
        <ele>253.44</ele>
        <time>2020-11-18T13:06:02Z</time>
      </trkpt>
      <trkpt lat="49.63751" lon="4.99526">
        <ele>255.37</ele>
        <time>2020-11-18T13:06:19Z</time>
      </trkpt>
      <trkpt lat="49.63749" lon="4.99525">
        <ele>255.37</ele>
        <time>2020-11-18T13:06:20Z</time>
      </trkpt>
      <trkpt lat="49.63726" lon="4.99514">
        <ele>259.21</ele>
        <time>2020-11-18T13:06:38Z</time>
      </trkpt>
      <trkpt lat="49.63712" lon="4.99496">
        <ele>261.62</ele>
        <time>2020-11-18T13:06:57Z</time>
      </trkpt>
      <trkpt lat="49.63695" lon="4.99488">
        <ele>265.94</ele>
        <time>2020-11-18T13:07:14Z</time>
      </trkpt>
      <trkpt lat="49.63679" lon="4.99485">
        <ele>268.83</ele>
        <time>2020-11-18T13:07:31Z</time>
      </trkpt>
      <trkpt lat="49.63663" lon="4.99478">
        <ele>272.19</ele>
        <time>2020-11-18T13:07:47Z</time>
      </trkpt>
      <trkpt lat="49.63645" lon="4.99476">
        <ele>273.15</ele>
        <time>2020-11-18T13:08:03Z</time>
      </trkpt>
      <trkpt lat="49.63623" lon="4.99471">
        <ele>274.11</ele>
        <time>2020-11-18T13:08:23Z</time>
      </trkpt>
      <trkpt lat="49.63601" lon="4.99464">
        <ele>277</ele>
        <time>2020-11-18T13:08:45Z</time>
      </trkpt>
      <trkpt lat="49.63579" lon="4.99453">
        <ele>284.21</ele>
        <time>2020-11-18T13:09:03Z</time>
      </trkpt>
      <trkpt lat="49.63566" lon="4.99447">
        <ele>287.57</ele>
        <time>2020-11-18T13:09:21Z</time>
      </trkpt>
      <trkpt lat="49.63558" lon="4.9945">
        <ele>288.53</ele>
        <time>2020-11-18T13:09:42Z</time>
      </trkpt>
      <trkpt lat="49.63525" lon="4.99422">
        <ele>291.42</ele>
        <time>2020-11-18T13:10:00Z</time>
      </trkpt>
      <trkpt lat="49.63507" lon="4.99406">
        <ele>299.11</ele>
        <time>2020-11-18T13:10:18Z</time>
      </trkpt>
      <trkpt lat="49.63485" lon="4.99394">
        <ele>300.55</ele>
        <time>2020-11-18T13:10:36Z</time>
      </trkpt>
      <trkpt lat="49.63473" lon="4.994">
        <ele>296.7</ele>
        <time>2020-11-18T13:10:58Z</time>
      </trkpt>
      <trkpt lat="49.63465" lon="4.99393">
        <ele>292.86</ele>
        <time>2020-11-18T13:11:13Z</time>
      </trkpt>
      <trkpt lat="49.63453" lon="4.9939">
        <ele>291.42</ele>
        <time>2020-11-18T13:11:27Z</time>
      </trkpt>
      <trkpt lat="49.63442" lon="4.99388">
        <ele>291.42</ele>
        <time>2020-11-18T13:11:44Z</time>
      </trkpt>
      <trkpt lat="49.6342" lon="4.99388">
        <ele>290.94</ele>
        <time>2020-11-18T13:12:03Z</time>
      </trkpt>
      <trkpt lat="49.634" lon="4.99392">
        <ele>292.38</ele>
        <time>2020-11-18T13:12:18Z</time>
      </trkpt>
      <trkpt lat="49.6339" lon="4.99393">
        <ele>290.94</ele>
        <time>2020-11-18T13:12:30Z</time>
      </trkpt>
      <trkpt lat="49.63367" lon="4.99395">
        <ele>290.94</ele>
        <time>2020-11-18T13:12:48Z</time>
      </trkpt>
      <trkpt lat="49.63349" lon="4.99393">
        <ele>291.42</ele>
        <time>2020-11-18T13:13:04Z</time>
      </trkpt>
      <trkpt lat="49.63332" lon="4.9939">
        <ele>291.42</ele>
        <time>2020-11-18T13:13:21Z</time>
      </trkpt>
      <trkpt lat="49.63314" lon="4.99381">
        <ele>288.53</ele>
        <time>2020-11-18T13:13:38Z</time>
      </trkpt>
      <trkpt lat="49.63309" lon="4.99377">
        <ele>287.57</ele>
        <time>2020-11-18T13:13:57Z</time>
      </trkpt>
      <trkpt lat="49.63312" lon="4.99377">
        <ele>286.61</ele>
        <time>2020-11-18T13:14:17Z</time>
      </trkpt>
      <trkpt lat="49.63312" lon="4.99379">
        <ele>285.17</ele>
        <time>2020-11-18T13:14:42Z</time>
      </trkpt>
      <trkpt lat="49.63313" lon="4.9938">
        <ele>284.69</ele>
        <time>2020-11-18T13:15:13Z</time>
      </trkpt>
      <trkpt lat="49.63316" lon="4.99382">
        <ele>283.73</ele>
        <time>2020-11-18T13:15:30Z</time>
      </trkpt>
      <trkpt lat="49.63317" lon="4.99382">
        <ele>283.73</ele>
        <time>2020-11-18T13:15:51Z</time>
      </trkpt>
      <trkpt lat="49.63318" lon="4.99382">
        <ele>283.73</ele>
        <time>2020-11-18T13:16:19Z</time>
      </trkpt>
      <trkpt lat="49.63319" lon="4.99381">
        <ele>282.77</ele>
        <time>2020-11-18T13:16:45Z</time>
      </trkpt>
      <trkpt lat="49.63319" lon="4.9938">
        <ele>281.8</ele>
        <time>2020-11-18T13:17:14Z</time>
      </trkpt>
      <trkpt lat="49.63319" lon="4.9938">
        <ele>281.32</ele>
        <time>2020-11-18T13:17:37Z</time>
      </trkpt>
      <trkpt lat="49.6332" lon="4.99381">
        <ele>280.36</ele>
        <time>2020-11-18T13:18:07Z</time>
      </trkpt>
      <trkpt lat="49.63321" lon="4.9938">
        <ele>280.36</ele>
        <time>2020-11-18T13:18:39Z</time>
      </trkpt>
      <trkpt lat="49.6332" lon="4.9938">
        <ele>280.36</ele>
        <time>2020-11-18T13:19:18Z</time>
      </trkpt>
      <trkpt lat="49.63319" lon="4.99378">
        <ele>280.36</ele>
        <time>2020-11-18T13:19:50Z</time>
      </trkpt>
      <trkpt lat="49.6332" lon="4.99379">
        <ele>279.88</ele>
        <time>2020-11-18T13:20:21Z</time>
      </trkpt>
      <trkpt lat="49.63317" lon="4.99372">
        <ele>279.4</ele>
        <time>2020-11-18T13:20:40Z</time>
      </trkpt>
      <trkpt lat="49.63303" lon="4.99352">
        <ele>278.92</ele>
        <time>2020-11-18T13:20:57Z</time>
      </trkpt>
      <trkpt lat="49.6329" lon="4.9933">
        <ele>278.44</ele>
        <time>2020-11-18T13:21:15Z</time>
      </trkpt>
      <trkpt lat="49.63285" lon="4.99321">
        <ele>277.96</ele>
        <time>2020-11-18T13:21:23Z</time>
      </trkpt>
      <trkpt lat="49.63279" lon="4.99295">
        <ele>280.36</ele>
        <time>2020-11-18T13:21:40Z</time>
      </trkpt>
      <trkpt lat="49.63269" lon="4.9928">
        <ele>283.25</ele>
        <time>2020-11-18T13:21:56Z</time>
      </trkpt>
      <trkpt lat="49.63251" lon="4.99263">
        <ele>285.17</ele>
        <time>2020-11-18T13:22:15Z</time>
      </trkpt>
      <trkpt lat="49.63233" lon="4.99244">
        <ele>287.09</ele>
        <time>2020-11-18T13:22:33Z</time>
      </trkpt>
      <trkpt lat="49.63232" lon="4.99244">
        <ele>288.05</ele>
        <time>2020-11-18T13:22:55Z</time>
      </trkpt>
      <trkpt lat="49.63232" lon="4.99245">
        <ele>288.53</ele>
        <time>2020-11-18T13:23:16Z</time>
      </trkpt>
      <trkpt lat="49.63234" lon="4.99243">
        <ele>287.57</ele>
        <time>2020-11-18T13:23:42Z</time>
      </trkpt>
      <trkpt lat="49.63237" lon="4.99241">
        <ele>282.77</ele>
        <time>2020-11-18T13:24:00Z</time>
      </trkpt>
      <trkpt lat="49.63234" lon="4.99224">
        <ele>278.92</ele>
        <time>2020-11-18T13:24:18Z</time>
      </trkpt>
      <trkpt lat="49.63226" lon="4.99189">
        <ele>280.84</ele>
        <time>2020-11-18T13:24:41Z</time>
      </trkpt>
      <trkpt lat="49.63228" lon="4.99173">
        <ele>280.36</ele>
        <time>2020-11-18T13:24:59Z</time>
      </trkpt>
      <trkpt lat="49.63229" lon="4.99182">
        <ele>279.88</ele>
        <time>2020-11-18T13:25:14Z</time>
      </trkpt>
      <trkpt lat="49.63232" lon="4.99206">
        <ele>277.96</ele>
        <time>2020-11-18T13:25:31Z</time>
      </trkpt>
      <trkpt lat="49.63234" lon="4.99214">
        <ele>277</ele>
        <time>2020-11-18T13:25:49Z</time>
      </trkpt>
      <trkpt lat="49.63243" lon="4.99216">
        <ele>279.88</ele>
        <time>2020-11-18T13:26:08Z</time>
      </trkpt>
      <trkpt lat="49.63257" lon="4.99202">
        <ele>280.84</ele>
        <time>2020-11-18T13:26:22Z</time>
      </trkpt>
      <trkpt lat="49.63268" lon="4.99186">
        <ele>280.84</ele>
        <time>2020-11-18T13:26:37Z</time>
      </trkpt>
      <trkpt lat="49.63274" lon="4.99166">
        <ele>284.21</ele>
        <time>2020-11-18T13:26:53Z</time>
      </trkpt>
      <trkpt lat="49.63274" lon="4.99165">
        <ele>284.69</ele>
        <time>2020-11-18T13:26:54Z</time>
      </trkpt>
      <trkpt lat="49.6328" lon="4.99146">
        <ele>289.01</ele>
        <time>2020-11-18T13:27:11Z</time>
      </trkpt>
      <trkpt lat="49.63289" lon="4.99129">
        <ele>292.86</ele>
        <time>2020-11-18T13:27:29Z</time>
      </trkpt>
      <trkpt lat="49.63298" lon="4.99101">
        <ele>295.26</ele>
        <time>2020-11-18T13:27:49Z</time>
      </trkpt>
      <trkpt lat="49.63305" lon="4.99083">
        <ele>295.74</ele>
        <time>2020-11-18T13:28:04Z</time>
      </trkpt>
      <trkpt lat="49.63313" lon="4.9907">
        <ele>295.26</ele>
        <time>2020-11-18T13:28:19Z</time>
      </trkpt>
      <trkpt lat="49.63318" lon="4.99063">
        <ele>294.3</ele>
        <time>2020-11-18T13:28:34Z</time>
      </trkpt>
      <trkpt lat="49.63325" lon="4.99052">
        <ele>292.38</ele>
        <time>2020-11-18T13:28:50Z</time>
      </trkpt>
      <trkpt lat="49.6334" lon="4.99023">
        <ele>289.01</ele>
        <time>2020-11-18T13:29:06Z</time>
      </trkpt>
      <trkpt lat="49.63355" lon="4.98996">
        <ele>287.09</ele>
        <time>2020-11-18T13:29:20Z</time>
      </trkpt>
      <trkpt lat="49.63364" lon="4.98979">
        <ele>284.21</ele>
        <time>2020-11-18T13:29:31Z</time>
      </trkpt>
      <trkpt lat="49.63372" lon="4.98961">
        <ele>281.32</ele>
        <time>2020-11-18T13:29:49Z</time>
      </trkpt>
      <trkpt lat="49.63366" lon="4.98949">
        <ele>279.4</ele>
        <time>2020-11-18T13:30:02Z</time>
      </trkpt>
      <trkpt lat="49.63359" lon="4.9893">
        <ele>277</ele>
        <time>2020-11-18T13:30:16Z</time>
      </trkpt>
      <trkpt lat="49.63357" lon="4.98924">
        <ele>277</ele>
        <time>2020-11-18T13:30:20Z</time>
      </trkpt>
      <trkpt lat="49.63353" lon="4.98899">
        <ele>275.56</ele>
        <time>2020-11-18T13:30:35Z</time>
      </trkpt>
      <trkpt lat="49.63345" lon="4.98877">
        <ele>274.59</ele>
        <time>2020-11-18T13:30:52Z</time>
      </trkpt>
      <trkpt lat="49.63336" lon="4.98853">
        <ele>272.67</ele>
        <time>2020-11-18T13:31:10Z</time>
      </trkpt>
      <trkpt lat="49.63324" lon="4.9883">
        <ele>271.23</ele>
        <time>2020-11-18T13:31:27Z</time>
      </trkpt>
      <trkpt lat="49.63312" lon="4.98808">
        <ele>269.79</ele>
        <time>2020-11-18T13:31:46Z</time>
      </trkpt>
      <trkpt lat="49.63297" lon="4.98788">
        <ele>268.35</ele>
        <time>2020-11-18T13:32:05Z</time>
      </trkpt>
      <trkpt lat="49.63281" lon="4.98769">
        <ele>269.31</ele>
        <time>2020-11-18T13:32:27Z</time>
      </trkpt>
      <trkpt lat="49.63274" lon="4.98763">
        <ele>270.27</ele>
        <time>2020-11-18T13:32:45Z</time>
      </trkpt>
      <trkpt lat="49.63261" lon="4.98761">
        <ele>271.71</ele>
        <time>2020-11-18T13:33:04Z</time>
      </trkpt>
      <trkpt lat="49.63256" lon="4.98758">
        <ele>273.15</ele>
        <time>2020-11-18T13:33:23Z</time>
      </trkpt>
      <trkpt lat="49.63252" lon="4.98758">
        <ele>271.71</ele>
        <time>2020-11-18T13:33:43Z</time>
      </trkpt>
      <trkpt lat="49.6325" lon="4.98755">
        <ele>271.23</ele>
        <time>2020-11-18T13:33:59Z</time>
      </trkpt>
      <trkpt lat="49.6324" lon="4.98757">
        <ele>268.83</ele>
        <time>2020-11-18T13:34:15Z</time>
      </trkpt>
      <trkpt lat="49.6322" lon="4.98757">
        <ele>265.94</ele>
        <time>2020-11-18T13:34:34Z</time>
      </trkpt>
      <trkpt lat="49.63209" lon="4.9875">
        <ele>264.98</ele>
        <time>2020-11-18T13:34:51Z</time>
      </trkpt>
      <trkpt lat="49.63192" lon="4.98747">
        <ele>263.54</ele>
        <time>2020-11-18T13:35:06Z</time>
      </trkpt>
      <trkpt lat="49.63189" lon="4.98746">
        <ele>263.06</ele>
        <time>2020-11-18T13:35:08Z</time>
      </trkpt>
      <trkpt lat="49.63146" lon="4.98725">
        <ele>266.9</ele>
        <time>2020-11-18T13:35:29Z</time>
      </trkpt>
      <trkpt lat="49.63115" lon="4.98723">
        <ele>273.63</ele>
        <time>2020-11-18T13:35:49Z</time>
      </trkpt>
      <trkpt lat="49.63099" lon="4.98738">
        <ele>278.92</ele>
        <time>2020-11-18T13:36:09Z</time>
      </trkpt>
      <trkpt lat="49.63083" lon="4.98754">
        <ele>277.48</ele>
        <time>2020-11-18T13:36:29Z</time>
      </trkpt>
      <trkpt lat="49.63074" lon="4.98757">
        <ele>277.48</ele>
        <time>2020-11-18T13:36:48Z</time>
      </trkpt>
      <trkpt lat="49.63073" lon="4.98756">
        <ele>277.96</ele>
        <time>2020-11-18T13:37:08Z</time>
      </trkpt>
      <trkpt lat="49.63071" lon="4.98756">
        <ele>280.36</ele>
        <time>2020-11-18T13:37:26Z</time>
      </trkpt>
      <trkpt lat="49.63065" lon="4.98727">
        <ele>280.84</ele>
        <time>2020-11-18T13:37:47Z</time>
      </trkpt>
      <trkpt lat="49.63058" lon="4.98709">
        <ele>280.36</ele>
        <time>2020-11-18T13:38:10Z</time>
      </trkpt>
      <trkpt lat="49.63053" lon="4.98692">
        <ele>279.88</ele>
        <time>2020-11-18T13:38:36Z</time>
      </trkpt>
      <trkpt lat="49.63052" lon="4.98688">
        <ele>279.88</ele>
        <time>2020-11-18T13:38:59Z</time>
      </trkpt>
      <trkpt lat="49.63053" lon="4.98683">
        <ele>279.4</ele>
        <time>2020-11-18T13:39:21Z</time>
      </trkpt>
      <trkpt lat="49.63053" lon="4.9868">
        <ele>278.92</ele>
        <time>2020-11-18T13:39:40Z</time>
      </trkpt>
      <trkpt lat="49.63055" lon="4.98671">
        <ele>276.52</ele>
        <time>2020-11-18T13:40:02Z</time>
      </trkpt>
      <trkpt lat="49.63053" lon="4.98637">
        <ele>274.11</ele>
        <time>2020-11-18T13:40:21Z</time>
      </trkpt>
      <trkpt lat="49.63038" lon="4.98587">
        <ele>272.67</ele>
        <time>2020-11-18T13:40:43Z</time>
      </trkpt>
      <trkpt lat="49.63026" lon="4.98544">
        <ele>273.63</ele>
        <time>2020-11-18T13:41:02Z</time>
      </trkpt>
      <trkpt lat="49.63032" lon="4.98518">
        <ele>271.71</ele>
        <time>2020-11-18T13:41:24Z</time>
      </trkpt>
      <trkpt lat="49.6304" lon="4.98505">
        <ele>270.75</ele>
        <time>2020-11-18T13:41:44Z</time>
      </trkpt>
      <trkpt lat="49.63045" lon="4.98496">
        <ele>270.75</ele>
        <time>2020-11-18T13:42:05Z</time>
      </trkpt>
      <trkpt lat="49.63051" lon="4.98491">
        <ele>269.31</ele>
        <time>2020-11-18T13:42:27Z</time>
      </trkpt>
      <trkpt lat="49.63057" lon="4.98487">
        <ele>266.9</ele>
        <time>2020-11-18T13:42:44Z</time>
      </trkpt>
      <trkpt lat="49.63063" lon="4.98485">
        <ele>264.02</ele>
        <time>2020-11-18T13:43:06Z</time>
      </trkpt>
      <trkpt lat="49.63068" lon="4.98484">
        <ele>262.1</ele>
        <time>2020-11-18T13:43:25Z</time>
      </trkpt>
      <trkpt lat="49.63075" lon="4.98481">
        <ele>259.69</ele>
        <time>2020-11-18T13:43:47Z</time>
      </trkpt>
      <trkpt lat="49.63109" lon="4.98468">
        <ele>256.33</ele>
        <time>2020-11-18T13:44:05Z</time>
      </trkpt>
      <trkpt lat="49.63162" lon="4.9845">
        <ele>251.04</ele>
        <time>2020-11-18T13:44:29Z</time>
      </trkpt>
      <trkpt lat="49.63182" lon="4.98444">
        <ele>248.64</ele>
        <time>2020-11-18T13:44:49Z</time>
      </trkpt>
      <trkpt lat="49.63206" lon="4.9843">
        <ele>244.31</ele>
        <time>2020-11-18T13:45:15Z</time>
      </trkpt>
      <trkpt lat="49.63212" lon="4.98429">
        <ele>244.79</ele>
        <time>2020-11-18T13:45:35Z</time>
      </trkpt>
      <trkpt lat="49.63219" lon="4.98423">
        <ele>245.75</ele>
        <time>2020-11-18T13:45:55Z</time>
      </trkpt>
      <trkpt lat="49.63224" lon="4.9842">
        <ele>245.27</ele>
        <time>2020-11-18T13:46:17Z</time>
      </trkpt>
      <trkpt lat="49.63231" lon="4.98412">
        <ele>244.31</ele>
        <time>2020-11-18T13:46:36Z</time>
      </trkpt>
      <trkpt lat="49.63237" lon="4.98406">
        <ele>242.87</ele>
        <time>2020-11-18T13:46:54Z</time>
      </trkpt>
      <trkpt lat="49.63241" lon="4.98397">
        <ele>240.47</ele>
        <time>2020-11-18T13:47:12Z</time>
      </trkpt>
      <trkpt lat="49.63246" lon="4.98392">
        <ele>239.99</ele>
        <time>2020-11-18T13:47:29Z</time>
      </trkpt>
      <trkpt lat="49.63253" lon="4.98388">
        <ele>238.06</ele>
        <time>2020-11-18T13:47:47Z</time>
      </trkpt>
      <trkpt lat="49.6326" lon="4.98385">
        <ele>238.54</ele>
        <time>2020-11-18T13:48:09Z</time>
      </trkpt>
      <trkpt lat="49.6327" lon="4.98379">
        <ele>234.22</ele>
        <time>2020-11-18T13:48:29Z</time>
      </trkpt>
      <trkpt lat="49.6328" lon="4.98375">
        <ele>228.45</ele>
        <time>2020-11-18T13:48:50Z</time>
      </trkpt>
      <trkpt lat="49.6329" lon="4.98369">
        <ele>222.68</ele>
        <time>2020-11-18T13:49:08Z</time>
      </trkpt>
      <trkpt lat="49.6331" lon="4.98358">
        <ele>215.95</ele>
        <time>2020-11-18T13:49:24Z</time>
      </trkpt>
      <trkpt lat="49.6335" lon="4.98327">
        <ele>211.15</ele>
        <time>2020-11-18T13:49:45Z</time>
      </trkpt>
      <trkpt lat="49.634" lon="4.98289">
        <ele>211.63</ele>
        <time>2020-11-18T13:50:06Z</time>
      </trkpt>
      <trkpt lat="49.63438" lon="4.9826">
        <ele>199.61</ele>
        <time>2020-11-18T13:50:23Z</time>
      </trkpt>
      <trkpt lat="49.63446" lon="4.98251">
        <ele>198.17</ele>
        <time>2020-11-18T13:50:39Z</time>
      </trkpt>
      <trkpt lat="49.63447" lon="4.98249">
        <ele>197.69</ele>
        <time>2020-11-18T13:50:40Z</time>
      </trkpt>
      <trkpt lat="49.63451" lon="4.98243">
        <ele>195.77</ele>
        <time>2020-11-18T13:50:46Z</time>
      </trkpt>
      <trkpt lat="49.63459" lon="4.98233">
        <ele>193.84</ele>
        <time>2020-11-18T13:50:56Z</time>
      </trkpt>
      <trkpt lat="49.6347" lon="4.98207">
        <ele>190.48</ele>
        <time>2020-11-18T13:51:17Z</time>
      </trkpt>
      <trkpt lat="49.63478" lon="4.98178">
        <ele>185.67</ele>
        <time>2020-11-18T13:51:37Z</time>
      </trkpt>
      <trkpt lat="49.63484" lon="4.98157">
        <ele>184.71</ele>
        <time>2020-11-18T13:51:56Z</time>
      </trkpt>
      <trkpt lat="49.63486" lon="4.98153">
        <ele>183.75</ele>
        <time>2020-11-18T13:52:00Z</time>
      </trkpt>
      <trkpt lat="49.63492" lon="4.9813">
        <ele>181.83</ele>
        <time>2020-11-18T13:52:18Z</time>
      </trkpt>
      <trkpt lat="49.63489" lon="4.98115">
        <ele>182.79</ele>
        <time>2020-11-18T13:52:30Z</time>
      </trkpt>
      <trkpt lat="49.63474" lon="4.98092">
        <ele>179.9</ele>
        <time>2020-11-18T13:52:52Z</time>
      </trkpt>
      <trkpt lat="49.63461" lon="4.98069">
        <ele>178.46</ele>
        <time>2020-11-18T13:53:12Z</time>
      </trkpt>
      <trkpt lat="49.63456" lon="4.98053">
        <ele>177.02</ele>
        <time>2020-11-18T13:53:29Z</time>
      </trkpt>
      <trkpt lat="49.63451" lon="4.98045">
        <ele>175.58</ele>
        <time>2020-11-18T13:53:47Z</time>
      </trkpt>
      <trkpt lat="49.6345" lon="4.98046">
        <ele>176.54</ele>
        <time>2020-11-18T13:54:04Z</time>
      </trkpt>
      <trkpt lat="49.63451" lon="4.98045">
        <ele>177.02</ele>
        <time>2020-11-18T13:54:15Z</time>
      </trkpt>
    </trkseg>
  </trk>
</gpx>